createdAt,value
2022-12-25T00:01:09.871Z,68.83
2022-12-25T00:03:37.547Z,68.61
2022-12-25T00:06:04.548Z,68.90
2022-12-25T00:08:31.767Z,68.75
2022-12-25T00:11:08.211Z,68.83
2022-12-25T00:13:35.249Z,68.91
2022-12-25T00:16:11.294Z,68.83
2022-12-25T00:18:38.131Z,69.13
2022-12-25T00:21:06.663Z,68.79
2022-12-25T00:23:35.023Z,69.09
2022-12-25T00:26:06.369Z,68.92
2022-12-25T00:28:33.210Z,68.99
2022-12-25T00:31:00.157Z,68.91
2022-12-25T00:33:27.056Z,68.86
2022-12-25T00:35:59.161Z,69.45
2022-12-25T00:38:27.368Z,68.96
2022-12-25T00:40:54.508Z,68.61
2022-12-25T00:43:21.596Z,68.75
2022-12-25T00:46:01.392Z,68.74
2022-12-25T00:48:29.432Z,68.59
2022-12-25T00:50:59.729Z,68.43
2022-12-25T00:53:28.376Z,68.54
2022-12-25T00:56:01.707Z,68.44
2022-12-25T00:58:31.007Z,68.47
2022-12-25T01:00:58.040Z,68.67
2022-12-25T01:03:25.401Z,68.33
2022-12-25T01:05:58.670Z,68.17
2022-12-25T01:08:26.442Z,68.08
2022-12-25T01:10:58.569Z,67.99
2022-12-25T01:13:26.587Z,68.06
2022-12-25T01:15:54.300Z,67.91
2022-12-25T01:18:23.390Z,67.49
2022-12-25T01:20:50.569Z,67.84
2022-12-25T01:23:17.461Z,67.96
2022-12-25T01:25:44.321Z,68.13
2022-12-25T01:28:11.098Z,67.78
2022-12-25T01:30:37.876Z,68.32
2022-12-25T01:33:04.773Z,68.13
2022-12-25T01:35:31.535Z,68.06
2022-12-25T01:37:58.295Z,67.98
2022-12-25T01:40:25.060Z,67.89
2022-12-25T01:42:51.862Z,67.83
2022-12-25T01:45:47.711Z,68.27
2022-12-25T01:48:20.476Z,68.62
2022-12-25T01:50:55.295Z,68.62
2022-12-25T01:53:23.000Z,68.58
2022-12-25T01:55:55.142Z,68.79
2022-12-25T01:58:22.234Z,68.76
2022-12-25T02:00:50.927Z,68.89
2022-12-25T02:03:19.285Z,68.92
2022-12-25T02:05:47.346Z,68.69
2022-12-25T02:08:17.432Z,68.91
2022-12-25T02:10:44.737Z,69.09
2022-12-25T02:13:14.490Z,68.78
2022-12-25T02:16:16.019Z,68.77
2022-12-25T02:18:52.214Z,68.78
2022-12-25T02:22:01.949Z,68.67
2022-12-25T02:25:16.897Z,68.63
2022-12-25T02:28:11.235Z,68.41
2022-12-25T02:30:46.488Z,68.47
2022-12-25T02:33:48.958Z,68.41
2022-12-25T02:36:23.370Z,68.86
2022-12-25T02:39:14.548Z,68.64
2022-12-25T02:41:45.578Z,68.45
2022-12-25T02:44:51.139Z,68.46
2022-12-25T02:47:37.433Z,68.46
2022-12-25T02:50:25.369Z,68.36
2022-12-25T02:53:12.779Z,68.50
2022-12-25T02:56:00.012Z,68.39
2022-12-25T02:58:46.403Z,68.75
2022-12-25T03:01:37.959Z,68.79
2022-12-25T03:04:29.365Z,69.18
2022-12-25T03:07:12.320Z,69.86
2022-12-25T03:10:04.081Z,70.07
2022-12-25T03:12:56.983Z,70.49
2022-12-25T03:15:42.699Z,70.58
2022-12-25T03:18:17.784Z,70.63
2022-12-25T03:21:03.091Z,70.29
2022-12-25T03:23:52.327Z,70.58
2022-12-25T03:26:37.769Z,70.69
2022-12-25T03:29:04.857Z,70.83
2022-12-25T03:31:50.717Z,70.76
2022-12-25T03:34:54.217Z,70.95
2022-12-25T03:37:45.541Z,70.88
2022-12-25T03:41:16.096Z,71.03
2022-12-25T03:44:19.095Z,71.15
2022-12-25T03:47:17.993Z,70.96
2022-12-25T03:50:10.840Z,70.95
2022-12-25T03:52:57.718Z,70.77
2022-12-25T03:55:45.189Z,70.43
2022-12-25T03:58:40.044Z,70.23
2022-12-25T04:01:25.490Z,70.49
2022-12-25T04:04:10.682Z,70.66
2022-12-25T04:06:56.473Z,70.68
2022-12-25T04:09:42.168Z,70.95
2022-12-25T04:12:27.704Z,70.93
2022-12-25T04:15:12.799Z,71.19
2022-12-25T04:17:57.956Z,71.25
2022-12-25T04:21:03.158Z,71.14
2022-12-25T04:23:48.560Z,70.96
2022-12-25T04:26:34.085Z,71.54
2022-12-25T04:29:19.371Z,71.54
2022-12-25T04:32:04.562Z,71.90
2022-12-25T04:34:54.239Z,71.79
2022-12-25T04:37:21.040Z,71.69
2022-12-25T04:39:47.953Z,71.39
2022-12-25T04:42:15.819Z,71.66
2022-12-25T04:44:42.623Z,71.51
2022-12-25T04:47:11.657Z,71.51
2022-12-25T04:49:39.201Z,71.47
2022-12-25T04:52:05.968Z,71.30
2022-12-25T04:54:32.803Z,71.79
2022-12-25T04:56:59.582Z,71.55
2022-12-25T04:59:26.328Z,71.34
2022-12-25T05:01:53.168Z,71.42
2022-12-25T05:04:20.049Z,71.35
2022-12-25T05:06:46.787Z,71.08
2022-12-25T05:09:13.613Z,71.21
2022-12-25T05:11:40.355Z,71.24
2022-12-25T05:14:07.132Z,71.72
2022-12-25T05:16:34.040Z,71.46
2022-12-25T05:19:00.922Z,71.49
2022-12-25T05:21:27.683Z,71.90
2022-12-25T05:23:54.504Z,72.04
2022-12-25T05:26:25.243Z,72.19
2022-12-25T05:28:52.180Z,72.00
2022-12-25T05:31:19.924Z,72.25
2022-12-25T05:33:50.621Z,72.35
2022-12-25T05:36:17.485Z,72.08
2022-12-25T05:38:44.476Z,72.08
2022-12-25T05:41:11.287Z,72.48
2022-12-25T05:43:38.037Z,72.57
2022-12-25T05:46:07.353Z,72.42
2022-12-25T05:48:36.820Z,72.45
2022-12-25T05:51:06.812Z,72.45
2022-12-25T05:53:33.778Z,72.41
2022-12-25T05:56:03.456Z,72.34
2022-12-25T05:58:31.692Z,72.47
2022-12-25T06:00:58.487Z,72.46
2022-12-25T06:03:26.078Z,72.42
2022-12-25T06:05:53.160Z,72.55
2022-12-25T06:08:20.040Z,72.42
2022-12-25T06:10:47.156Z,72.69
2022-12-25T06:13:13.972Z,72.23
2022-12-25T06:15:41.952Z,72.56
2022-12-25T06:18:08.850Z,72.21
2022-12-25T06:20:36.154Z,72.38
2022-12-25T06:23:02.963Z,72.10
2022-12-25T06:25:29.728Z,72.37
2022-12-25T06:27:56.464Z,72.26
2022-12-25T06:30:23.348Z,72.48
2022-12-25T06:32:50.147Z,72.12
2022-12-25T06:35:16.970Z,72.48
2022-12-25T06:37:43.766Z,72.11
2022-12-25T06:40:10.884Z,72.08
2022-12-25T06:42:37.677Z,71.93
2022-12-25T06:45:04.954Z,72.16
2022-12-25T06:47:31.744Z,72.04
2022-12-25T06:49:58.496Z,72.02
2022-12-25T06:52:25.261Z,71.95
2022-12-25T06:54:52.139Z,71.79
2022-12-25T06:57:19.377Z,72.34
2022-12-25T06:59:49.903Z,72.12
2022-12-25T07:02:24.087Z,71.73
2022-12-25T07:04:52.045Z,71.97
2022-12-25T07:07:18.809Z,72.06
2022-12-25T07:09:45.623Z,71.85
2022-12-25T07:12:23.324Z,72.14
2022-12-25T07:14:50.508Z,71.89
2022-12-25T07:17:18.191Z,72.07
2022-12-25T07:19:46.858Z,72.01
2022-12-25T07:22:15.004Z,72.17
2022-12-25T07:24:42.370Z,72.02
2022-12-25T07:27:09.251Z,72.11
2022-12-25T07:29:36.041Z,71.99
2022-12-25T07:32:02.996Z,72.36
2022-12-25T07:34:29.943Z,72.26
2022-12-25T07:36:56.698Z,72.29
2022-12-25T07:39:23.715Z,72.25
2022-12-25T07:41:51.167Z,72.29
2022-12-25T07:44:18.205Z,72.44
2022-12-25T07:46:45.016Z,71.96
2022-12-25T07:49:12.279Z,72.17
2022-12-25T07:51:39.396Z,71.98
2022-12-25T07:54:06.443Z,72.06
2022-12-25T07:56:33.523Z,72.11
2022-12-25T07:59:00.354Z,72.16
2022-12-25T08:01:28.515Z,72.21
2022-12-25T08:04:01.965Z,71.95
2022-12-25T08:06:34.471Z,72.47
2022-12-25T08:09:12.898Z,72.01
2022-12-25T08:11:44.836Z,72.79
2022-12-25T08:14:11.609Z,72.78
2022-12-25T08:16:41.469Z,72.85
2022-12-25T08:19:09.181Z,73.06
2022-12-25T08:21:35.966Z,73.29
2022-12-25T08:24:03.195Z,73.31
2022-12-25T08:26:30.019Z,73.30
2022-12-25T08:28:56.883Z,72.92
2022-12-25T08:31:27.968Z,72.86
2022-12-25T08:33:57.807Z,72.93
2022-12-25T08:36:25.565Z,73.20
2022-12-25T08:38:55.726Z,73.02
2022-12-25T08:41:27.642Z,72.99
2022-12-25T08:43:54.649Z,72.97
2022-12-25T08:46:21.608Z,72.71
2022-12-25T08:48:50.315Z,72.58
2022-12-25T08:51:22.999Z,72.80
2022-12-25T08:53:51.761Z,72.80
2022-12-25T08:56:19.730Z,72.40
2022-12-25T08:58:46.992Z,72.37
2022-12-25T09:01:14.294Z,72.35
2022-12-25T09:03:41.368Z,72.39
2022-12-25T09:06:11.777Z,72.21
2022-12-25T09:08:44.208Z,72.35
2022-12-25T09:11:15.046Z,71.88
2022-12-25T09:13:42.255Z,72.02
2022-12-25T09:16:13.602Z,72.09
2022-12-25T09:18:40.745Z,72.39
2022-12-25T09:21:11.539Z,72.27
2022-12-25T09:23:38.703Z,72.45
2022-12-25T09:26:07.952Z,72.35
2022-12-25T09:28:35.049Z,72.19
2022-12-25T09:31:02.888Z,72.41
2022-12-25T09:33:29.770Z,72.43
2022-12-25T09:36:03.337Z,72.28
2022-12-25T09:38:30.465Z,72.43
2022-12-25T09:41:23.483Z,72.30
2022-12-25T09:44:09.374Z,72.25
2022-12-25T09:46:47.852Z,72.29
2022-12-25T09:49:52.739Z,72.05
2022-12-25T09:52:26.491Z,72.00
2022-12-25T09:55:27.202Z,72.21
2022-12-25T09:57:58.445Z,72.27
2022-12-25T10:00:44.257Z,72.20
2022-12-25T10:03:41.864Z,72.09
2022-12-25T10:06:22.918Z,72.23
2022-12-25T10:09:08.421Z,72.01
2022-12-25T10:12:05.903Z,71.87
2022-12-25T10:15:22.143Z,72.23
2022-12-25T10:18:19.677Z,72.01
2022-12-25T10:20:52.867Z,72.20
2022-12-25T10:23:26.314Z,71.82
2022-12-25T10:25:54.487Z,72.38
2022-12-25T10:28:37.706Z,71.86
2022-12-25T10:31:22.677Z,71.74
2022-12-25T10:33:51.992Z,71.99
2022-12-25T10:36:26.717Z,72.00
2022-12-25T10:38:54.424Z,72.35
2022-12-25T10:41:53.534Z,71.99
2022-12-25T10:44:24.458Z,71.97
2022-12-25T10:47:00.520Z,72.15
2022-12-25T10:49:39.217Z,71.93
2022-12-25T10:52:25.358Z,71.82
2022-12-25T10:54:52.868Z,71.98
2022-12-25T10:57:22.992Z,72.25
2022-12-25T10:59:55.977Z,72.07
2022-12-25T11:02:45.344Z,71.95
2022-12-25T11:05:30.313Z,72.14
2022-12-25T11:08:00.121Z,72.15
2022-12-25T11:10:44.057Z,71.93
2022-12-25T11:13:25.171Z,72.16
2022-12-25T11:16:10.866Z,72.18
2022-12-25T11:18:53.599Z,71.92
2022-12-25T11:21:28.888Z,71.95
2022-12-25T11:24:15.985Z,71.63
2022-12-25T11:26:58.325Z,71.96
2022-12-25T11:29:47.453Z,72.04
2022-12-25T11:32:41.021Z,72.14
2022-12-25T11:35:15.843Z,72.00
2022-12-25T11:37:49.562Z,72.07
2022-12-25T11:40:34.575Z,72.25
2022-12-25T11:43:23.785Z,72.08
2022-12-25T11:46:16.845Z,72.16
2022-12-25T11:48:49.956Z,72.34
2022-12-25T11:51:17.679Z,72.36
2022-12-25T11:53:51.639Z,72.19
2022-12-25T11:56:23.431Z,72.32
2022-12-25T11:58:53.762Z,72.29
2022-12-25T12:01:37.362Z,71.92
2022-12-25T12:04:29.084Z,72.03
2022-12-25T12:07:18.155Z,72.24
2022-12-25T12:10:04.482Z,72.05
2022-12-25T12:12:53.121Z,72.12
2022-12-25T12:15:41.482Z,71.86
2022-12-25T12:18:26.535Z,71.93
2022-12-25T12:21:17.918Z,71.85
2022-12-25T12:23:54.328Z,71.49
2022-12-25T12:26:24.541Z,71.66
2022-12-25T12:28:55.633Z,71.76
2022-12-25T12:31:22.934Z,71.51
2022-12-25T12:33:57.289Z,71.52
2022-12-25T12:36:35.596Z,71.40
2022-12-25T12:39:05.016Z,71.38
2022-12-25T12:41:46.311Z,71.57
2022-12-25T12:44:16.141Z,71.52
2022-12-25T12:46:54.101Z,72.05
2022-12-25T12:49:30.138Z,71.63
2022-12-25T12:52:23.916Z,71.43
2022-12-25T12:55:03.377Z,71.72
2022-12-25T12:57:34.415Z,71.45
2022-12-25T13:00:08.636Z,71.76
2022-12-25T13:03:02.978Z,71.59
2022-12-25T13:05:41.303Z,71.58
2022-12-25T13:08:23.324Z,71.74
2022-12-25T13:11:04.697Z,71.76
2022-12-25T13:13:39.245Z,71.75
2022-12-25T13:16:13.252Z,71.71
2022-12-25T13:18:40.256Z,71.67
2022-12-25T13:21:07.524Z,71.76
2022-12-25T13:23:37.415Z,71.63
2022-12-25T13:26:17.198Z,71.83
2022-12-25T13:28:47.039Z,71.91
2022-12-25T13:31:15.724Z,71.99
2022-12-25T13:34:01.156Z,71.91
2022-12-25T13:36:34.269Z,71.68
2022-12-25T13:39:01.450Z,71.98
2022-12-25T13:41:59.293Z,71.83
2022-12-25T13:44:30.218Z,71.89
2022-12-25T13:46:57.001Z,71.82
2022-12-25T13:49:24.398Z,71.89
2022-12-25T13:51:51.452Z,72.01
2022-12-25T13:54:19.127Z,71.79
2022-12-25T13:56:53.476Z,71.93
2022-12-25T13:59:22.341Z,72.33
2022-12-25T14:01:50.944Z,72.09
2022-12-25T14:04:23.883Z,72.00
2022-12-25T14:06:52.469Z,71.98
2022-12-25T14:09:19.633Z,71.97
2022-12-25T14:11:51.579Z,72.20
2022-12-25T14:14:24.703Z,71.98
2022-12-25T14:16:56.634Z,72.03
2022-12-25T14:19:32.510Z,72.09
2022-12-25T14:22:16.510Z,72.13
2022-12-25T14:24:43.305Z,72.50
2022-12-25T14:27:30.424Z,72.37
2022-12-25T14:30:00.375Z,72.47
2022-12-25T14:32:30.909Z,72.44
2022-12-25T14:35:03.382Z,72.36
2022-12-25T14:37:32.606Z,72.53
2022-12-25T14:40:05.041Z,72.57
2022-12-25T14:42:35.022Z,72.74
2022-12-25T14:45:24.949Z,72.52
2022-12-25T14:47:55.183Z,72.68
2022-12-25T14:50:29.106Z,72.63
2022-12-25T14:52:56.589Z,72.76
2022-12-25T14:55:29.509Z,72.58
2022-12-25T14:58:05.882Z,72.58
2022-12-25T15:00:38.901Z,72.60
2022-12-25T15:03:17.636Z,72.67
2022-12-25T15:05:44.562Z,72.60
2022-12-25T15:08:11.180Z,72.49
2022-12-25T15:10:59.444Z,72.71
2022-12-25T15:13:27.890Z,72.61
2022-12-25T15:16:13.623Z,72.68
2022-12-25T15:18:44.360Z,72.79
2022-12-25T15:21:30.381Z,72.85
2022-12-25T15:23:59.069Z,72.90
2022-12-25T15:26:29.346Z,72.96
2022-12-25T15:28:56.222Z,72.86
2022-12-25T15:31:30.589Z,72.91
2022-12-25T15:34:01.335Z,72.71
2022-12-25T15:36:28.536Z,72.79
2022-12-25T15:38:55.983Z,72.76
2022-12-25T15:41:49.253Z,72.70
2022-12-25T15:44:16.471Z,72.68
2022-12-25T15:46:43.454Z,72.79
2022-12-25T15:49:10.883Z,73.05
2022-12-25T15:51:37.852Z,72.98
2022-12-25T15:54:04.944Z,72.92
2022-12-25T15:56:46.790Z,73.26
2022-12-25T15:59:16.223Z,73.03
2022-12-25T16:01:56.355Z,72.94
2022-12-25T16:04:25.116Z,73.22
2022-12-25T16:06:52.598Z,72.99
2022-12-25T16:09:20.446Z,72.84
2022-12-25T16:11:48.846Z,73.05
2022-12-25T16:14:15.653Z,72.91
2022-12-25T16:16:42.461Z,73.01
2022-12-25T16:19:09.317Z,72.83
2022-12-25T16:21:46.387Z,72.61
2022-12-25T16:24:14.103Z,72.89
2022-12-25T16:26:41.666Z,72.65
2022-12-25T16:29:08.495Z,73.01
2022-12-25T16:31:37.275Z,72.70
2022-12-25T16:34:05.720Z,72.45
2022-12-25T16:36:33.272Z,72.70
2022-12-25T16:39:00.097Z,72.82
2022-12-25T16:41:26.902Z,72.70
2022-12-25T16:43:53.674Z,72.74
2022-12-25T16:46:22.161Z,72.72
2022-12-25T16:48:49.055Z,72.98
2022-12-25T16:51:19.337Z,72.74
2022-12-25T16:53:46.429Z,72.83
2022-12-25T16:56:20.508Z,72.90
2022-12-25T16:58:48.062Z,72.83
2022-12-25T17:01:19.129Z,73.00
2022-12-25T17:03:47.266Z,72.86
2022-12-25T17:06:32.275Z,72.75
2022-12-25T17:09:00.454Z,72.91
2022-12-25T17:11:30.020Z,73.09
2022-12-25T17:14:03.423Z,72.84
2022-12-25T17:16:34.389Z,72.90
2022-12-25T17:19:05.084Z,72.86
2022-12-25T17:21:36.600Z,72.79
2022-12-25T17:24:04.506Z,72.80
2022-12-25T17:26:32.419Z,72.97
2022-12-25T17:28:59.522Z,72.80
2022-12-25T17:31:26.327Z,72.90
2022-12-25T17:33:53.123Z,72.70
2022-12-25T17:36:21.685Z,72.96
2022-12-25T17:38:49.243Z,72.80
2022-12-25T17:41:21.005Z,72.78
2022-12-25T17:43:48.140Z,72.87
2022-12-25T17:46:18.690Z,72.88
2022-12-25T17:48:46.689Z,73.00
2022-12-25T17:51:16.892Z,72.85
2022-12-25T17:53:47.896Z,73.21
2022-12-25T17:56:16.017Z,73.05
2022-12-25T17:58:43.045Z,72.96
2022-12-25T18:01:15.945Z,72.88
2022-12-25T18:03:44.193Z,72.76
2022-12-25T18:06:16.040Z,73.00
2022-12-25T18:08:45.024Z,72.84
2022-12-25T18:11:23.154Z,73.03
2022-12-25T18:13:52.144Z,73.04
2022-12-25T18:16:23.081Z,72.84
2022-12-25T18:18:52.583Z,72.95
2022-12-25T18:21:21.932Z,72.80
2022-12-25T18:23:50.078Z,73.11
2022-12-25T18:26:18.731Z,72.81
2022-12-25T18:28:45.569Z,72.96
2022-12-25T18:31:19.848Z,72.97
2022-12-25T18:33:47.418Z,73.09
2022-12-25T18:36:19.924Z,73.00
2022-12-25T18:38:48.223Z,73.14
2022-12-25T18:41:15.391Z,72.98
2022-12-25T18:43:54.194Z,73.01
2022-12-25T18:46:26.182Z,72.84
2022-12-25T18:48:55.030Z,72.95
2022-12-25T18:51:22.116Z,72.86
2022-12-25T18:53:48.901Z,72.75
2022-12-25T18:56:18.171Z,73.06
2022-12-25T18:58:46.503Z,73.07
2022-12-25T19:01:22.405Z,72.88
2022-12-25T19:03:50.543Z,72.53
2022-12-25T19:06:20.469Z,72.94
2022-12-25T19:08:47.333Z,72.96
2022-12-25T19:11:14.282Z,72.82
2022-12-25T19:13:41.095Z,72.75
2022-12-25T19:16:08.002Z,72.82
2022-12-25T19:18:34.805Z,72.78
2022-12-25T19:22:36.374Z,72.59
2022-12-25T19:25:03.510Z,73.21
2022-12-25T19:27:30.269Z,72.85
2022-12-25T19:29:57.027Z,72.68
2022-12-25T19:32:23.828Z,72.82
2022-12-25T19:34:50.722Z,73.03
2022-12-25T19:37:17.487Z,72.46
2022-12-25T19:39:46.738Z,72.87
2022-12-25T19:42:16.107Z,72.61
2022-12-25T19:44:43.401Z,72.82
2022-12-25T19:47:10.747Z,72.71
2022-12-25T19:49:37.582Z,72.72
2022-12-25T19:52:04.763Z,72.78
2022-12-25T19:54:31.670Z,72.67
2022-12-25T19:56:58.499Z,72.81
2022-12-25T19:59:25.273Z,72.75
2022-12-25T20:01:52.289Z,72.84
2022-12-25T20:04:19.315Z,72.82
2022-12-25T20:06:46.188Z,72.68
2022-12-25T20:09:20.764Z,72.83
2022-12-25T20:11:48.145Z,73.15
2022-12-25T20:14:16.495Z,72.90
2022-12-25T20:16:44.312Z,72.74
2022-12-25T20:19:15.141Z,72.69
2022-12-25T20:21:42.201Z,72.77
2022-12-25T20:24:10.907Z,73.02
2022-12-25T20:26:39.401Z,72.96
2022-12-25T20:29:06.797Z,72.78
2022-12-25T20:31:35.493Z,72.90
2022-12-25T20:34:08.852Z,72.74
2022-12-25T20:39:48.529Z,72.86
